sensor_id;sensor_type;location;lat;lon;timestamp;P1;durP1;ratioP1;P2;durP2;ratioP2
15712;SDS011;7957;51.608;6.916;2022-08-19T00:01:54;5.23;;;4.07;;
15712;SDS011;7957;51.608;6.916;2022-08-19T00:04:23;3.77;;;3.47;;
15712;SDS011;7957;51.608;6.916;2022-08-19T00:06:52;4.40;;;4.00;;
15712;SDS011;7957;51.608;6.916;2022-08-19T00:09:21;6.40;;;3.90;;
15712;SDS011;7957;51.608;6.916;2022-08-19T00:11:49;4.30;;;4.00;;
15712;SDS011;7957;51.608;6.916;2022-08-19T00:14:16;4.03;;;3.73;;
15712;SDS011;7957;51.608;6.916;2022-08-19T00:16:44;5.00;;;4.00;;
15712;SDS011;7957;51.608;6.916;2022-08-19T00:19:13;4.57;;;4.00;;
15712;SDS011;7957;51.608;6.916;2022-08-19T00:21:40;4.50;;;4.10;;
15712;SDS011;7957;51.608;6.916;2022-08-19T00:24:08;4.27;;;3.87;;
15712;SDS011;7957;51.608;6.916;2022-08-19T00:26:38;4.00;;;3.60;;
15712;SDS011;7957;51.608;6.916;2022-08-19T00:29:06;3.97;;;3.67;;
15712;SDS011;7957;51.608;6.916;2022-08-19T00:31:34;4.50;;;4.10;;
15712;SDS011;7957;51.608;6.916;2022-08-19T00:34:02;3.73;;;3.43;;
15712;SDS011;7957;51.608;6.916;2022-08-19T00:36:29;4.63;;;3.87;;
15712;SDS011;7957;51.608;6.916;2022-08-19T00:38:57;4.80;;;4.30;;
15712;SDS011;7957;51.608;6.916;2022-08-19T00:41:25;4.23;;;3.70;;
15712;SDS011;7957;51.608;6.916;2022-08-19T00:44:02;4.23;;;3.93;;
15712;SDS011;7957;51.608;6.916;2022-08-19T00:46:30;3.90;;;3.60;;
15712;SDS011;7957;51.608;6.916;2022-08-19T00:48:57;4.43;;;4.03;;
15712;SDS011;7957;51.608;6.916;2022-08-19T00:51:26;4.37;;;3.73;;
15712;SDS011;7957;51.608;6.916;2022-08-19T00:53:55;4.43;;;4.03;;
15712;SDS011;7957;51.608;6.916;2022-08-19T00:56:24;4.27;;;3.97;;
15712;SDS011;7957;51.608;6.916;2022-08-19T00:58:52;4.17;;;3.87;;
15712;SDS011;7957;51.608;6.916;2022-08-19T01:01:22;3.93;;;3.63;;
15712;SDS011;7957;51.608;6.916;2022-08-19T01:03:49;4.30;;;3.90;;
15712;SDS011;7957;51.608;6.916;2022-08-19T01:06:16;4.33;;;3.80;;
15712;SDS011;7957;51.608;6.916;2022-08-19T01:08:43;4.57;;;4.17;;
15712;SDS011;7957;51.608;6.916;2022-08-19T01:11:09;4.43;;;4.13;;
15712;SDS011;7957;51.608;6.916;2022-08-19T01:13:38;4.67;;;3.80;;
15712;SDS011;7957;51.608;6.916;2022-08-19T01:16:06;4.10;;;3.80;;
15712;SDS011;7957;51.608;6.916;2022-08-19T01:18:38;4.20;;;3.80;;
15712;SDS011;7957;51.608;6.916;2022-08-19T01:21:09;4.60;;;4.20;;
15712;SDS011;7957;51.608;6.916;2022-08-19T01:23:44;4.47;;;3.70;;
15712;SDS011;7957;51.608;6.916;2022-08-19T01:26:13;4.40;;;4.00;;
15712;SDS011;7957;51.608;6.916;2022-08-19T01:28:42;4.30;;;3.90;;
15712;SDS011;7957;51.608;6.916;2022-08-19T01:31:10;4.63;;;4.23;;
15712;SDS011;7957;51.608;6.916;2022-08-19T01:33:39;4.73;;;4.33;;
15712;SDS011;7957;51.608;6.916;2022-08-19T01:36:07;5.83;;;4.30;;
15712;SDS011;7957;51.608;6.916;2022-08-19T01:38:36;4.70;;;3.93;;
15712;SDS011;7957;51.608;6.916;2022-08-19T01:41:08;5.00;;;4.50;;
15712;SDS011;7957;51.608;6.916;2022-08-19T01:43:36;5.40;;;4.23;;
15712;SDS011;7957;51.608;6.916;2022-08-19T01:46:03;4.77;;;4.33;;
15712;SDS011;7957;51.608;6.916;2022-08-19T01:48:32;4.37;;;4.07;;
15712;SDS011;7957;51.608;6.916;2022-08-19T01:51:00;4.80;;;4.50;;
15712;SDS011;7957;51.608;6.916;2022-08-19T01:53:27;4.50;;;4.20;;
15712;SDS011;7957;51.608;6.916;2022-08-19T01:55:55;4.80;;;4.33;;
15712;SDS011;7957;51.608;6.916;2022-08-19T01:58:24;5.67;;;4.30;;
15712;SDS011;7957;51.608;6.916;2022-08-19T02:00:54;4.77;;;4.43;;
15712;SDS011;7957;51.608;6.916;2022-08-19T02:03:21;5.00;;;4.60;;
15712;SDS011;7957;51.608;6.916;2022-08-19T02:05:53;5.30;;;4.80;;
15712;SDS011;7957;51.608;6.916;2022-08-19T02:08:21;4.60;;;4.20;;
15712;SDS011;7957;51.608;6.916;2022-08-19T02:10:48;4.83;;;4.43;;
15712;SDS011;7957;51.608;6.916;2022-08-19T02:13:16;4.77;;;4.43;;
15712;SDS011;7957;51.608;6.916;2022-08-19T02:15:44;5.10;;;4.60;;
15712;SDS011;7957;51.608;6.916;2022-08-19T02:18:11;4.80;;;4.40;;
15712;SDS011;7957;51.608;6.916;2022-08-19T02:20:39;5.00;;;4.60;;
15712;SDS011;7957;51.608;6.916;2022-08-19T02:23:06;5.00;;;4.60;;
15712;SDS011;7957;51.608;6.916;2022-08-19T02:25:34;4.73;;;4.33;;
15712;SDS011;7957;51.608;6.916;2022-08-19T02:28:00;5.13;;;4.60;;
15712;SDS011;7957;51.608;6.916;2022-08-19T02:30:27;5.97;;;4.63;;
15712;SDS011;7957;51.608;6.916;2022-08-19T02:32:56;5.23;;;4.80;;
15712;SDS011;7957;51.608;6.916;2022-08-19T02:35:23;5.07;;;4.57;;
15712;SDS011;7957;51.608;6.916;2022-08-19T02:37:50;4.97;;;4.50;;
15712;SDS011;7957;51.608;6.916;2022-08-19T02:40:35;6.27;;;5.17;;
15712;SDS011;7957;51.608;6.916;2022-08-19T02:43:02;5.27;;;4.77;;
15712;SDS011;7957;51.608;6.916;2022-08-19T02:45:31;5.60;;;5.10;;
15712;SDS011;7957;51.608;6.916;2022-08-19T02:48:00;5.43;;;4.93;;
15712;SDS011;7957;51.608;6.916;2022-08-19T02:50:28;5.63;;;5.13;;
15712;SDS011;7957;51.608;6.916;2022-08-19T02:52:55;5.77;;;5.27;;
15712;SDS011;7957;51.608;6.916;2022-08-19T02:55:21;6.03;;;5.00;;
15712;SDS011;7957;51.608;6.916;2022-08-19T02:57:48;5.73;;;5.23;;
15712;SDS011;7957;51.608;6.916;2022-08-19T03:00:15;5.73;;;5.23;;
15712;SDS011;7957;51.608;6.916;2022-08-19T03:02:43;5.80;;;5.30;;
15712;SDS011;7957;51.608;6.916;2022-08-19T03:05:13;5.63;;;5.20;;
15712;SDS011;7957;51.608;6.916;2022-08-19T03:07:39;5.40;;;5.00;;
15712;SDS011;7957;51.608;6.916;2022-08-19T03:10:07;5.63;;;5.23;;
15712;SDS011;7957;51.608;6.916;2022-08-19T03:12:35;6.17;;;5.57;;
15712;SDS011;7957;51.608;6.916;2022-08-19T03:15:03;8.60;;;5.73;;
15712;SDS011;7957;51.608;6.916;2022-08-19T03:17:32;6.00;;;5.50;;
15712;SDS011;7957;51.608;6.916;2022-08-19T03:19:59;6.70;;;6.10;;
15712;SDS011;7957;51.608;6.916;2022-08-19T03:22:28;6.37;;;5.80;;
15712;SDS011;7957;51.608;6.916;2022-08-19T03:24:55;6.23;;;5.63;;
15712;SDS011;7957;51.608;6.916;2022-08-19T03:27:22;6.43;;;5.93;;
15712;SDS011;7957;51.608;6.916;2022-08-19T03:29:50;6.60;;;6.00;;
15712;SDS011;7957;51.608;6.916;2022-08-19T03:32:16;7.00;;;6.40;;
15712;SDS011;7957;51.608;6.916;2022-08-19T03:34:43;6.90;;;6.40;;
15712;SDS011;7957;51.608;6.916;2022-08-19T03:37:11;6.40;;;5.80;;
15712;SDS011;7957;51.608;6.916;2022-08-19T03:39:40;6.80;;;6.30;;
15712;SDS011;7957;51.608;6.916;2022-08-19T03:42:08;7.33;;;6.63;;
15712;SDS011;7957;51.608;6.916;2022-08-19T03:44:35;6.47;;;5.90;;
15712;SDS011;7957;51.608;6.916;2022-08-19T03:47:03;7.00;;;6.33;;
15712;SDS011;7957;51.608;6.916;2022-08-19T03:49:32;7.00;;;6.27;;
15712;SDS011;7957;51.608;6.916;2022-08-19T03:52:00;7.23;;;6.63;;
15712;SDS011;7957;51.608;6.916;2022-08-19T03:54:29;7.97;;;6.40;;
15712;SDS011;7957;51.608;6.916;2022-08-19T03:56:58;6.77;;;6.27;;
15712;SDS011;7957;51.608;6.916;2022-08-19T03:59:26;6.67;;;6.17;;
15712;SDS011;7957;51.608;6.916;2022-08-19T04:01:57;7.53;;;6.57;;
15712;SDS011;7957;51.608;6.916;2022-08-19T04:04:25;7.03;;;6.53;;
15712;SDS011;7957;51.608;6.916;2022-08-19T04:06:53;7.70;;;7.10;;
15712;SDS011;7957;51.608;6.916;2022-08-19T04:09:20;7.20;;;6.50;;
15712;SDS011;7957;51.608;6.916;2022-08-19T04:11:48;7.03;;;6.50;;
15712;SDS011;7957;51.608;6.916;2022-08-19T04:14:20;7.67;;;6.97;;
15712;SDS011;7957;51.608;6.916;2022-08-19T04:16:49;6.90;;;6.23;;
15712;SDS011;7957;51.608;6.916;2022-08-19T04:19:16;6.93;;;6.33;;
15712;SDS011;7957;51.608;6.916;2022-08-19T04:21:45;7.37;;;6.67;;
15712;SDS011;7957;51.608;6.916;2022-08-19T04:24:14;7.50;;;6.90;;
15712;SDS011;7957;51.608;6.916;2022-08-19T04:26:41;7.93;;;7.23;;
15712;SDS011;7957;51.608;6.916;2022-08-19T04:29:10;7.80;;;7.00;;
15712;SDS011;7957;51.608;6.916;2022-08-19T04:31:41;7.40;;;6.90;;
15712;SDS011;7957;51.608;6.916;2022-08-19T04:34:11;8.10;;;7.40;;
15712;SDS011;7957;51.608;6.916;2022-08-19T04:36:40;7.80;;;7.20;;
15712;SDS011;7957;51.608;6.916;2022-08-19T04:39:10;7.80;;;7.10;;
15712;SDS011;7957;51.608;6.916;2022-08-19T04:41:39;7.53;;;6.93;;
15712;SDS011;7957;51.608;6.916;2022-08-19T04:44:24;8.00;;;7.30;;
15712;SDS011;7957;51.608;6.916;2022-08-19T04:46:53;7.70;;;6.90;;
15712;SDS011;7957;51.608;6.916;2022-08-19T04:49:21;7.87;;;7.07;;
15712;SDS011;7957;51.608;6.916;2022-08-19T04:51:49;7.90;;;7.20;;
15712;SDS011;7957;51.608;6.916;2022-08-19T04:54:19;7.87;;;7.07;;
15712;SDS011;7957;51.608;6.916;2022-08-19T04:56:48;8.03;;;7.23;;
15712;SDS011;7957;51.608;6.916;2022-08-19T04:59:15;8.10;;;7.40;;
15712;SDS011;7957;51.608;6.916;2022-08-19T05:01:43;7.93;;;7.30;;
15712;SDS011;7957;51.608;6.916;2022-08-19T05:04:17;7.60;;;7.00;;
15712;SDS011;7957;51.608;6.916;2022-08-19T05:06:45;8.10;;;7.30;;
15712;SDS011;7957;51.608;6.916;2022-08-19T05:09:13;8.00;;;7.40;;
15712;SDS011;7957;51.608;6.916;2022-08-19T05:11:40;7.60;;;7.00;;
15712;SDS011;7957;51.608;6.916;2022-08-19T05:14:08;7.43;;;6.83;;
15712;SDS011;7957;51.608;6.916;2022-08-19T05:16:35;7.80;;;7.00;;
15712;SDS011;7957;51.608;6.916;2022-08-19T05:19:02;8.00;;;7.23;;
15712;SDS011;7957;51.608;6.916;2022-08-19T05:21:48;7.93;;;7.23;;
15712;SDS011;7957;51.608;6.916;2022-08-19T05:24:32;8.43;;;7.70;;
15712;SDS011;7957;51.608;6.916;2022-08-19T05:27:00;7.70;;;6.97;;
15712;SDS011;7957;51.608;6.916;2022-08-19T05:29:30;8.30;;;7.57;;
15712;SDS011;7957;51.608;6.916;2022-08-19T05:31:59;8.30;;;7.37;;
15712;SDS011;7957;51.608;6.916;2022-08-19T05:34:27;8.00;;;7.30;;
15712;SDS011;7957;51.608;6.916;2022-08-19T05:36:56;8.90;;;7.30;;
15712;SDS011;7957;51.608;6.916;2022-08-19T05:39:27;8.70;;;7.90;;
15712;SDS011;7957;51.608;6.916;2022-08-19T05:41:57;7.70;;;6.93;;
15712;SDS011;7957;51.608;6.916;2022-08-19T05:44:25;7.47;;;6.87;;
15712;SDS011;7957;51.608;6.916;2022-08-19T05:46:56;9.10;;;7.40;;
15712;SDS011;7957;51.608;6.916;2022-08-19T05:49:24;8.67;;;7.80;;
15712;SDS011;7957;51.608;6.916;2022-08-19T05:51:52;7.90;;;7.27;;
15712;SDS011;7957;51.608;6.916;2022-08-19T05:54:22;7.93;;;7.23;;
15712;SDS011;7957;51.608;6.916;2022-08-19T05:56:50;8.17;;;7.37;;
15712;SDS011;7957;51.608;6.916;2022-08-19T05:59:19;7.73;;;7.07;;
15712;SDS011;7957;51.608;6.916;2022-08-19T06:01:48;8.80;;;7.90;;
15712;SDS011;7957;51.608;6.916;2022-08-19T06:04:17;8.60;;;7.80;;
15712;SDS011;7957;51.608;6.916;2022-08-19T06:06:44;8.40;;;7.70;;
15712;SDS011;7957;51.608;6.916;2022-08-19T06:09:12;8.27;;;7.47;;
15712;SDS011;7957;51.608;6.916;2022-08-19T06:11:42;7.67;;;7.07;;
15712;SDS011;7957;51.608;6.916;2022-08-19T06:14:11;9.03;;;8.13;;
15712;SDS011;7957;51.608;6.916;2022-08-19T06:16:40;8.73;;;7.90;;
15712;SDS011;7957;51.608;6.916;2022-08-19T06:19:09;8.80;;;8.00;;
15712;SDS011;7957;51.608;6.916;2022-08-19T06:21:38;8.63;;;7.83;;
15712;SDS011;7957;51.608;6.916;2022-08-19T06:24:07;9.70;;;8.13;;
15712;SDS011;7957;51.608;6.916;2022-08-19T06:26:37;9.40;;;8.50;;
15712;SDS011;7957;51.608;6.916;2022-08-19T06:29:07;8.87;;;7.97;;
15712;SDS011;7957;51.608;6.916;2022-08-19T06:31:35;8.90;;;8.10;;
15712;SDS011;7957;51.608;6.916;2022-08-19T06:34:04;8.57;;;7.87;;
15712;SDS011;7957;51.608;6.916;2022-08-19T06:36:31;9.37;;;8.47;;
15712;SDS011;7957;51.608;6.916;2022-08-19T06:39:00;8.73;;;8.03;;
15712;SDS011;7957;51.608;6.916;2022-08-19T06:41:28;8.33;;;7.53;;
15712;SDS011;7957;51.608;6.916;2022-08-19T06:43:56;8.43;;;7.67;;
15712;SDS011;7957;51.608;6.916;2022-08-19T06:46:24;8.57;;;7.80;;
15712;SDS011;7957;51.608;6.916;2022-08-19T06:48:51;9.60;;;7.97;;
15712;SDS011;7957;51.608;6.916;2022-08-19T06:51:20;7.20;;;6.50;;
15712;SDS011;7957;51.608;6.916;2022-08-19T06:53:49;8.23;;;7.53;;
15712;SDS011;7957;51.608;6.916;2022-08-19T06:56:18;9.43;;;7.73;;
15712;SDS011;7957;51.608;6.916;2022-08-19T06:58:45;7.70;;;7.00;;
15712;SDS011;7957;51.608;6.916;2022-08-19T07:01:13;8.33;;;7.63;;
15712;SDS011;7957;51.608;6.916;2022-08-19T07:03:41;8.63;;;7.83;;
15712;SDS011;7957;51.608;6.916;2022-08-19T07:06:14;7.80;;;7.20;;
15712;SDS011;7957;51.608;6.916;2022-08-19T07:08:43;8.67;;;7.87;;
15712;SDS011;7957;51.608;6.916;2022-08-19T07:11:12;8.77;;;7.97;;
15712;SDS011;7957;51.608;6.916;2022-08-19T07:13:41;8.63;;;7.83;;
15712;SDS011;7957;51.608;6.916;2022-08-19T07:16:09;9.47;;;8.57;;
15712;SDS011;7957;51.608;6.916;2022-08-19T07:18:37;9.17;;;8.37;;
15712;SDS011;7957;51.608;6.916;2022-08-19T07:21:07;9.17;;;8.30;;
15712;SDS011;7957;51.608;6.916;2022-08-19T07:23:35;9.00;;;8.23;;
15712;SDS011;7957;51.608;6.916;2022-08-19T07:26:04;11.27;;;10.27;;
15712;SDS011;7957;51.608;6.916;2022-08-19T07:28:32;12.60;;;11.60;;
15712;SDS011;7957;51.608;6.916;2022-08-19T07:30:59;13.47;;;12.17;;
15712;SDS011;7957;51.608;6.916;2022-08-19T07:33:27;11.33;;;10.23;;
15712;SDS011;7957;51.608;6.916;2022-08-19T07:35:57;10.50;;;9.53;;
15712;SDS011;7957;51.608;6.916;2022-08-19T07:38:25;10.47;;;9.57;;
15712;SDS011;7957;51.608;6.916;2022-08-19T07:40:52;10.33;;;9.43;;
15712;SDS011;7957;51.608;6.916;2022-08-19T07:43:19;12.47;;;11.30;;
15712;SDS011;7957;51.608;6.916;2022-08-19T07:45:50;14.27;;;12.97;;
15712;SDS011;7957;51.608;6.916;2022-08-19T07:48:17;12.97;;;11.67;;
15712;SDS011;7957;51.608;6.916;2022-08-19T07:50:44;10.60;;;9.60;;
15712;SDS011;7957;51.608;6.916;2022-08-19T07:53:11;12.27;;;11.10;;
15712;SDS011;7957;51.608;6.916;2022-08-19T07:55:39;13.67;;;12.30;;
15712;SDS011;7957;51.608;6.916;2022-08-19T07:58:06;12.73;;;11.57;;
15712;SDS011;7957;51.608;6.916;2022-08-19T08:00:33;13.53;;;12.37;;
15712;SDS011;7957;51.608;6.916;2022-08-19T08:03:00;13.37;;;12.07;;
15712;SDS011;7957;51.608;6.916;2022-08-19T08:05:27;18.03;;;13.27;;
15712;SDS011;7957;51.608;6.916;2022-08-19T08:08:11;18.97;;;15.63;;
15712;SDS011;7957;51.608;6.916;2022-08-19T08:10:57;17.40;;;13.53;;
15712;SDS011;7957;51.608;6.916;2022-08-19T08:13:24;15.20;;;13.80;;
15712;SDS011;7957;51.608;6.916;2022-08-19T08:15:53;16.33;;;14.93;;
15712;SDS011;7957;51.608;6.916;2022-08-19T08:18:19;15.57;;;14.17;;
15712;SDS011;7957;51.608;6.916;2022-08-19T08:20:46;16.53;;;15.07;;
15712;SDS011;7957;51.608;6.916;2022-08-19T08:23:13;16.93;;;15.23;;
15712;SDS011;7957;51.608;6.916;2022-08-19T08:25:49;17.00;;;15.10;;
15712;SDS011;7957;51.608;6.916;2022-08-19T08:28:18;18.13;;;16.27;;
15712;SDS011;7957;51.608;6.916;2022-08-19T08:30:46;17.17;;;15.43;;
15712;SDS011;7957;51.608;6.916;2022-08-19T08:33:13;19.90;;;17.90;;
15712;SDS011;7957;51.608;6.916;2022-08-19T08:35:42;16.77;;;15.07;;
15712;SDS011;7957;51.608;6.916;2022-08-19T08:38:10;17.40;;;15.67;;
15712;SDS011;7957;51.608;6.916;2022-08-19T08:40:39;17.80;;;16.20;;
15712;SDS011;7957;51.608;6.916;2022-08-19T08:43:13;16.90;;;15.40;;
15712;SDS011;7957;51.608;6.916;2022-08-19T08:45:49;18.07;;;16.47;;
15712;SDS011;7957;51.608;6.916;2022-08-19T08:48:22;20.23;;;18.23;;
15712;SDS011;7957;51.608;6.916;2022-08-19T08:50:56;19.03;;;17.27;;
15712;SDS011;7957;51.608;6.916;2022-08-19T08:53:24;19.53;;;17.53;;
15712;SDS011;7957;51.608;6.916;2022-08-19T08:55:52;18.27;;;16.57;;
15712;SDS011;7957;51.608;6.916;2022-08-19T08:58:24;18.50;;;16.70;;
15712;SDS011;7957;51.608;6.916;2022-08-19T09:00:55;18.47;;;16.57;;
15712;SDS011;7957;51.608;6.916;2022-08-19T09:03:23;15.37;;;13.90;;
15712;SDS011;7957;51.608;6.916;2022-08-19T09:05:55;13.33;;;12.00;;
15712;SDS011;7957;51.608;6.916;2022-08-19T09:08:30;13.63;;;12.43;;
15712;SDS011;7957;51.608;6.916;2022-08-19T09:11:06;14.10;;;12.80;;
15712;SDS011;7957;51.608;6.916;2022-08-19T09:13:38;13.50;;;12.10;;
15712;SDS011;7957;51.608;6.916;2022-08-19T09:16:15;13.30;;;12.03;;
15712;SDS011;7957;51.608;6.916;2022-08-19T09:18:46;12.93;;;11.80;;
15712;SDS011;7957;51.608;6.916;2022-08-19T09:21:18;15.67;;;14.20;;
15712;SDS011;7957;51.608;6.916;2022-08-19T09:23:45;15.50;;;14.00;;
15712;SDS011;7957;51.608;6.916;2022-08-19T09:26:13;13.43;;;12.03;;
15712;SDS011;7957;51.608;6.916;2022-08-19T09:28:44;12.37;;;11.27;;
15712;SDS011;7957;51.608;6.916;2022-08-19T09:31:13;10.37;;;9.57;;
15712;SDS011;7957;51.608;6.916;2022-08-19T09:33:41;10.10;;;9.20;;
15712;SDS011;7957;51.608;6.916;2022-08-19T09:36:09;13.43;;;9.93;;
15712;SDS011;7957;51.608;6.916;2022-08-19T09:38:38;10.20;;;9.13;;
15712;SDS011;7957;51.608;6.916;2022-08-19T09:41:07;9.87;;;8.97;;
15712;SDS011;7957;51.608;6.916;2022-08-19T09:43:38;10.27;;;9.27;;
15712;SDS011;7957;51.608;6.916;2022-08-19T09:46:08;9.83;;;8.87;;
15712;SDS011;7957;51.608;6.916;2022-08-19T09:48:36;11.60;;;10.27;;
15712;SDS011;7957;51.608;6.916;2022-08-19T09:51:03;13.23;;;12.10;;
15712;SDS011;7957;51.608;6.916;2022-08-19T09:53:33;16.47;;;11.90;;
15712;SDS011;7957;51.608;6.916;2022-08-19T09:55:59;15.53;;;12.70;;
15712;SDS011;7957;51.608;6.916;2022-08-19T09:58:26;17.27;;;12.00;;
15712;SDS011;7957;51.608;6.916;2022-08-19T10:00:55;13.80;;;12.50;;
15712;SDS011;7957;51.608;6.916;2022-08-19T10:03:24;16.23;;;14.77;;
15712;SDS011;7957;51.608;6.916;2022-08-19T10:05:52;15.70;;;13.93;;
15712;SDS011;7957;51.608;6.916;2022-08-19T10:08:20;14.40;;;13.00;;
15712;SDS011;7957;51.608;6.916;2022-08-19T10:10:50;17.27;;;15.73;;
15712;SDS011;7957;51.608;6.916;2022-08-19T10:13:19;15.40;;;14.07;;
15712;SDS011;7957;51.608;6.916;2022-08-19T10:15:50;17.40;;;15.70;;
15712;SDS011;7957;51.608;6.916;2022-08-19T10:18:19;16.20;;;14.50;;
15712;SDS011;7957;51.608;6.916;2022-08-19T10:20:48;16.80;;;15.30;;
15712;SDS011;7957;51.608;6.916;2022-08-19T10:23:17;16.93;;;15.33;;
15712;SDS011;7957;51.608;6.916;2022-08-19T10:25:44;16.30;;;14.80;;
15712;SDS011;7957;51.608;6.916;2022-08-19T10:28:11;18.43;;;16.73;;
15712;SDS011;7957;51.608;6.916;2022-08-19T10:30:38;16.80;;;15.40;;
15712;SDS011;7957;51.608;6.916;2022-08-19T10:33:06;16.13;;;14.63;;
15712;SDS011;7957;51.608;6.916;2022-08-19T10:35:33;16.87;;;15.37;;
15712;SDS011;7957;51.608;6.916;2022-08-19T10:38:03;15.93;;;14.43;;
15712;SDS011;7957;51.608;6.916;2022-08-19T10:40:29;16.60;;;15.00;;
15712;SDS011;7957;51.608;6.916;2022-08-19T10:42:56;21.17;;;19.07;;
15712;SDS011;7957;51.608;6.916;2022-08-19T10:45:23;17.87;;;16.17;;
15712;SDS011;7957;51.608;6.916;2022-08-19T10:47:51;20.40;;;18.30;;
15712;SDS011;7957;51.608;6.916;2022-08-19T10:50:19;19.10;;;17.40;;
15712;SDS011;7957;51.608;6.916;2022-08-19T10:53:04;19.40;;;17.67;;
15712;SDS011;7957;51.608;6.916;2022-08-19T10:55:34;18.83;;;16.93;;
15712;SDS011;7957;51.608;6.916;2022-08-19T10:58:19;20.93;;;19.03;;
15712;SDS011;7957;51.608;6.916;2022-08-19T11:00:51;21.37;;;19.27;;
15712;SDS011;7957;51.608;6.916;2022-08-19T11:03:19;20.83;;;18.83;;
15712;SDS011;7957;51.608;6.916;2022-08-19T11:05:51;20.33;;;18.53;;
15712;SDS011;7957;51.608;6.916;2022-08-19T11:08:25;20.53;;;18.63;;
15712;SDS011;7957;51.608;6.916;2022-08-19T11:10:52;18.70;;;16.90;;
15712;SDS011;7957;51.608;6.916;2022-08-19T11:13:25;17.63;;;15.83;;
15712;SDS011;7957;51.608;6.916;2022-08-19T11:15:59;15.33;;;13.80;;
15712;SDS011;7957;51.608;6.916;2022-08-19T11:18:29;14.80;;;13.43;;
15712;SDS011;7957;51.608;6.916;2022-08-19T11:21:04;14.23;;;12.77;;
15712;SDS011;7957;51.608;6.916;2022-08-19T11:23:33;13.43;;;12.20;;
15712;SDS011;7957;51.608;6.916;2022-08-19T11:26:00;12.30;;;11.30;;
15712;SDS011;7957;51.608;6.916;2022-08-19T11:28:27;12.70;;;11.60;;
15712;SDS011;7957;51.608;6.916;2022-08-19T11:30:54;12.80;;;11.70;;
15712;SDS011;7957;51.608;6.916;2022-08-19T11:33:21;11.37;;;10.40;;
15712;SDS011;7957;51.608;6.916;2022-08-19T11:35:48;11.30;;;10.40;;
15712;SDS011;7957;51.608;6.916;2022-08-19T11:38:15;10.53;;;9.53;;
15712;SDS011;7957;51.608;6.916;2022-08-19T11:40:45;11.37;;;10.17;;
15712;SDS011;7957;51.608;6.916;2022-08-19T11:43:20;12.37;;;11.17;;
15712;SDS011;7957;51.608;6.916;2022-08-19T11:45:47;13.30;;;12.03;;
15712;SDS011;7957;51.608;6.916;2022-08-19T11:48:14;12.70;;;11.60;;
15712;SDS011;7957;51.608;6.916;2022-08-19T11:50:42;12.27;;;10.87;;
15712;SDS011;7957;51.608;6.916;2022-08-19T11:53:09;12.73;;;11.73;;
15712;SDS011;7957;51.608;6.916;2022-08-19T11:55:36;12.80;;;11.77;;
15712;SDS011;7957;51.608;6.916;2022-08-19T11:58:06;11.00;;;10.00;;
15712;SDS011;7957;51.608;6.916;2022-08-19T12:00:33;10.80;;;9.77;;
15712;SDS011;7957;51.608;6.916;2022-08-19T12:03:01;9.57;;;8.73;;
15712;SDS011;7957;51.608;6.916;2022-08-19T12:05:28;10.50;;;9.37;;
15712;SDS011;7957;51.608;6.916;2022-08-19T12:07:55;9.27;;;8.47;;
15712;SDS011;7957;51.608;6.916;2022-08-19T12:10:22;9.80;;;8.07;;
15712;SDS011;7957;51.608;6.916;2022-08-19T12:12:49;9.13;;;7.47;;
15712;SDS011;7957;51.608;6.916;2022-08-19T12:15:18;9.13;;;7.65;;
15712;SDS011;7957;51.608;6.916;2022-08-19T12:17:45;9.68;;;8.77;;
15712;SDS011;7957;51.608;6.916;2022-08-19T12:20:12;9.63;;;8.20;;
15712;SDS011;7957;51.608;6.916;2022-08-19T12:22:40;9.02;;;8.13;;
15712;SDS011;7957;51.608;6.916;2022-08-19T12:25:08;8.07;;;7.32;;
15712;SDS011;7957;51.608;6.916;2022-08-19T12:27:36;7.97;;;7.28;;
15712;SDS011;7957;51.608;6.916;2022-08-19T12:30:04;12.75;;;7.65;;
15712;SDS011;7957;51.608;6.916;2022-08-19T12:32:35;8.50;;;7.18;;
15712;SDS011;7957;51.608;6.916;2022-08-19T12:35:01;8.02;;;7.32;;
15712;SDS011;7957;51.608;6.916;2022-08-19T12:37:28;7.78;;;7.07;;
15712;SDS011;7957;51.608;6.916;2022-08-19T12:39:56;7.18;;;6.57;;
15712;SDS011;7957;51.608;6.916;2022-08-19T12:42:23;7.07;;;6.38;;
15712;SDS011;7957;51.608;6.916;2022-08-19T12:44:50;9.43;;;6.30;;
15712;SDS011;7957;51.608;6.916;2022-08-19T12:47:17;6.43;;;5.80;;
15712;SDS011;7957;51.608;6.916;2022-08-19T12:49:47;6.38;;;5.75;;
15712;SDS011;7957;51.608;6.916;2022-08-19T12:52:14;7.03;;;5.53;;
15712;SDS011;7957;51.608;6.916;2022-08-19T12:54:42;12.55;;;5.45;;
15712;SDS011;7957;51.608;6.916;2022-08-19T12:57:09;6.93;;;5.10;;
15712;SDS011;7957;51.608;6.916;2022-08-19T12:59:37;6.30;;;5.40;;
15712;SDS011;7957;51.608;6.916;2022-08-19T13:02:06;6.68;;;5.80;;
15712;SDS011;7957;51.608;6.916;2022-08-19T13:04:34;7.28;;;5.47;;
15712;SDS011;7957;51.608;6.916;2022-08-19T13:07:06;6.30;;;5.35;;
15712;SDS011;7957;51.608;6.916;2022-08-19T13:09:34;6.88;;;5.20;;
15712;SDS011;7957;51.608;6.916;2022-08-19T13:12:01;6.20;;;5.03;;
15712;SDS011;7957;51.608;6.916;2022-08-19T13:14:32;5.25;;;4.72;;
15712;SDS011;7957;51.608;6.916;2022-08-19T13:16:59;5.80;;;5.00;;
15712;SDS011;7957;51.608;6.916;2022-08-19T13:19:26;5.22;;;4.72;;
15712;SDS011;7957;51.608;6.916;2022-08-19T13:21:53;4.85;;;4.45;;
15712;SDS011;7957;51.608;6.916;2022-08-19T13:24:22;4.78;;;4.38;;
15712;SDS011;7957;51.608;6.916;2022-08-19T13:26:49;4.57;;;4.17;;
15712;SDS011;7957;51.608;6.916;2022-08-19T13:29:15;4.90;;;4.43;;
15712;SDS011;7957;51.608;6.916;2022-08-19T13:32:05;4.88;;;4.38;;
15712;SDS011;7957;51.608;6.916;2022-08-19T13:34:50;5.28;;;4.60;;
15712;SDS011;7957;51.608;6.916;2022-08-19T13:37:17;4.75;;;4.32;;
15712;SDS011;7957;51.608;6.916;2022-08-19T13:40:06;6.05;;;4.40;;
15712;SDS011;7957;51.608;6.916;2022-08-19T13:42:36;5.50;;;4.50;;
15712;SDS011;7957;51.608;6.916;2022-08-19T13:45:03;5.13;;;4.30;;
15712;SDS011;7957;51.608;6.916;2022-08-19T13:47:31;4.75;;;4.35;;
15712;SDS011;7957;51.608;6.916;2022-08-19T13:49:59;8.17;;;4.77;;
15712;SDS011;7957;51.608;6.916;2022-08-19T13:52:26;5.47;;;4.97;;
15712;SDS011;7957;51.608;6.916;2022-08-19T13:54:53;5.20;;;4.63;;
15712;SDS011;7957;51.608;6.916;2022-08-19T13:57:21;4.90;;;4.45;;
15712;SDS011;7957;51.608;6.916;2022-08-19T13:59:48;7.30;;;4.57;;
15712;SDS011;7957;51.608;6.916;2022-08-19T14:02:14;4.63;;;4.23;;
15712;SDS011;7957;51.608;6.916;2022-08-19T14:04:41;5.83;;;5.20;;
15712;SDS011;7957;51.608;6.916;2022-08-19T14:07:08;5.60;;;5.00;;
15712;SDS011;7957;51.608;6.916;2022-08-19T14:09:35;5.70;;;5.13;;
15712;SDS011;7957;51.608;6.916;2022-08-19T14:12:02;6.22;;;5.68;;
15712;SDS011;7957;51.608;6.916;2022-08-19T14:14:31;8.30;;;6.60;;
15712;SDS011;7957;51.608;6.916;2022-08-19T14:16:58;6.40;;;5.80;;
15712;SDS011;7957;51.608;6.916;2022-08-19T14:19:25;6.60;;;6.00;;
15712;SDS011;7957;51.608;6.916;2022-08-19T14:21:52;7.10;;;6.40;;
15712;SDS011;7957;51.608;6.916;2022-08-19T14:24:21;7.30;;;6.60;;
15712;SDS011;7957;51.608;6.916;2022-08-19T14:26:48;7.83;;;7.13;;
15712;SDS011;7957;51.608;6.916;2022-08-19T14:29:15;6.90;;;6.07;;
15712;SDS011;7957;51.608;6.916;2022-08-19T14:31:43;9.60;;;7.33;;
15712;SDS011;7957;51.608;6.916;2022-08-19T14:34:10;10.53;;;7.67;;
15712;SDS011;7957;51.608;6.916;2022-08-19T14:36:37;9.77;;;8.13;;
15712;SDS011;7957;51.608;6.916;2022-08-19T14:39:04;8.30;;;7.60;;
15712;SDS011;7957;51.608;6.916;2022-08-19T14:41:31;10.60;;;8.17;;
15712;SDS011;7957;51.608;6.916;2022-08-19T14:43:58;8.97;;;7.90;;
15712;SDS011;7957;51.608;6.916;2022-08-19T14:46:26;9.70;;;7.97;;
15712;SDS011;7957;51.608;6.916;2022-08-19T14:48:56;8.60;;;7.70;;
15712;SDS011;7957;51.608;6.916;2022-08-19T14:51:23;8.40;;;7.70;;
15712;SDS011;7957;51.608;6.916;2022-08-19T14:53:51;8.60;;;7.80;;
15712;SDS011;7957;51.608;6.916;2022-08-19T14:56:19;8.93;;;8.13;;
15712;SDS011;7957;51.608;6.916;2022-08-19T14:58:48;8.60;;;7.83;;
15712;SDS011;7957;51.608;6.916;2022-08-19T15:01:16;9.60;;;7.80;;
15712;SDS011;7957;51.608;6.916;2022-08-19T15:03:45;9.00;;;8.10;;